Terminal Aerodrome Forecast
Issued by NWS Cleveland, OH

Home | Current Version | Previous Version | Text Only | Print | Product List | Glossary On
Versions: 1 2 3 4 5 6 7 8 9 10 11 12 13 14 15 16 17 18 19 20
688
FTUS41 KCLE 241138
TAFYNG
TAF
KYNG 241138Z 2412/2512 25005KT P6SM VCSH SCT008 OVC015
      TEMPO 2412/2414 4SM BR BKN008
     FM241400 28007KT P6SM VCSH BKN012
     FM241800 30012KT P6SM BKN025
     FM250500 35005KT P6SM SCT020=

USA.gov is the U.S. government's official web portal to all federal, state and local government web resources and services.